sensor_id;sensor_type;location;lat;lon;timestamp;P1;durP1;ratioP1;P2;durP2;ratioP2
71083;SDS011;58741;52.672;13.548;2023-05-07T00:01:53;3.15;;;2.60;;
71083;SDS011;58741;52.672;13.548;2023-05-07T00:04:19;3.33;;;2.40;;
71083;SDS011;58741;52.672;13.548;2023-05-07T00:06:45;7.85;;;3.15;;
71083;SDS011;58741;52.672;13.548;2023-05-07T00:09:11;3.67;;;2.60;;
71083;SDS011;58741;52.672;13.548;2023-05-07T00:11:37;2.88;;;2.28;;
71083;SDS011;58741;52.672;13.548;2023-05-07T00:14:03;2.65;;;2.30;;
71083;SDS011;58741;52.672;13.548;2023-05-07T00:16:29;4.45;;;2.53;;
71083;SDS011;58741;52.672;13.548;2023-05-07T00:18:55;6.40;;;2.45;;
71083;SDS011;58741;52.672;13.548;2023-05-07T00:21:20;2.63;;;1.85;;
71083;SDS011;58741;52.672;13.548;2023-05-07T00:23:46;5.45;;;2.45;;
71083;SDS011;58741;52.672;13.548;2023-05-07T00:26:14;3.50;;;2.40;;
71083;SDS011;58741;52.672;13.548;2023-05-07T00:28:42;4.90;;;2.47;;
71083;SDS011;58741;52.672;13.548;2023-05-07T00:31:08;2.53;;;2.33;;
71083;SDS011;58741;52.672;13.548;2023-05-07T00:33:33;3.30;;;2.60;;
71083;SDS011;58741;52.672;13.548;2023-05-07T00:35:59;4.70;;;2.95;;
71083;SDS011;58741;52.672;13.548;2023-05-07T00:38:27;6.72;;;2.20;;
71083;SDS011;58741;52.672;13.548;2023-05-07T00:40:52;5.70;;;2.90;;
71083;SDS011;58741;52.672;13.548;2023-05-07T00:43:18;3.67;;;2.17;;
71083;SDS011;58741;52.672;13.548;2023-05-07T00:45:44;5.75;;;2.70;;
71083;SDS011;58741;52.672;13.548;2023-05-07T00:48:10;4.95;;;2.38;;
71083;SDS011;58741;52.672;13.548;2023-05-07T00:50:36;2.30;;;1.52;;
71083;SDS011;58741;52.672;13.548;2023-05-07T00:53:02;3.38;;;2.20;;
71083;SDS011;58741;52.672;13.548;2023-05-07T00:55:28;2.90;;;2.28;;
71083;SDS011;58741;52.672;13.548;2023-05-07T00:57:55;3.20;;;2.22;;
71083;SDS011;58741;52.672;13.548;2023-05-07T01:00:21;4.85;;;2.72;;
71083;SDS011;58741;52.672;13.548;2023-05-07T01:02:46;2.63;;;1.85;;
71083;SDS011;58741;52.672;13.548;2023-05-07T01:05:13;4.13;;;2.67;;
71083;SDS011;58741;52.672;13.548;2023-05-07T01:07:47;3.55;;;2.38;;
71083;SDS011;58741;52.672;13.548;2023-05-07T01:10:17;4.68;;;2.33;;
71083;SDS011;58741;52.672;13.548;2023-05-07T01:12:43;5.18;;;2.50;;
71083;SDS011;58741;52.672;13.548;2023-05-07T01:15:13;2.25;;;1.60;;
71083;SDS011;58741;52.672;13.548;2023-05-07T01:17:42;4.00;;;2.33;;
71083;SDS011;58741;52.672;13.548;2023-05-07T01:20:19;2.80;;;2.13;;
71083;SDS011;58741;52.672;13.548;2023-05-07T01:22:47;3.65;;;2.22;;
71083;SDS011;58741;52.672;13.548;2023-05-07T01:25:13;7.03;;;2.70;;
71083;SDS011;58741;52.672;13.548;2023-05-07T01:27:48;3.50;;;2.45;;
71083;SDS011;58741;52.672;13.548;2023-05-07T01:30:14;3.88;;;2.33;;
71083;SDS011;58741;52.672;13.548;2023-05-07T01:32:49;6.07;;;2.42;;
71083;SDS011;58741;52.672;13.548;2023-05-07T01:35:29;5.10;;;2.63;;
71083;SDS011;58741;52.672;13.548;2023-05-07T01:37:58;4.38;;;2.72;;
71083;SDS011;58741;52.672;13.548;2023-05-07T01:40:25;3.35;;;2.58;;
71083;SDS011;58741;52.672;13.548;2023-05-07T01:42:52;3.83;;;2.63;;
71083;SDS011;58741;52.672;13.548;2023-05-07T01:45:27;3.20;;;2.03;;
71083;SDS011;58741;52.672;13.548;2023-05-07T01:47:53;4.85;;;2.35;;
71083;SDS011;58741;52.672;13.548;2023-05-07T01:50:31;4.63;;;2.50;;
71083;SDS011;58741;52.672;13.548;2023-05-07T01:52:58;4.22;;;2.53;;
71083;SDS011;58741;52.672;13.548;2023-05-07T01:55:24;2.97;;;2.70;;
71083;SDS011;58741;52.672;13.548;2023-05-07T01:57:56;3.53;;;2.38;;
71083;SDS011;58741;52.672;13.548;2023-05-07T02:00:22;3.03;;;2.15;;
71083;SDS011;58741;52.672;13.548;2023-05-07T02:02:54;2.85;;;2.30;;
71083;SDS011;58741;52.672;13.548;2023-05-07T02:05:29;3.20;;;2.45;;
71083;SDS011;58741;52.672;13.548;2023-05-07T02:08:00;2.67;;;1.90;;
71083;SDS011;58741;52.672;13.548;2023-05-07T02:10:27;4.70;;;2.40;;
71083;SDS011;58741;52.672;13.548;2023-05-07T02:12:52;2.58;;;2.17;;
71083;SDS011;58741;52.672;13.548;2023-05-07T02:15:18;2.35;;;1.95;;
71083;SDS011;58741;52.672;13.548;2023-05-07T02:18:01;4.93;;;2.63;;
71083;SDS011;58741;52.672;13.548;2023-05-07T02:20:31;4.32;;;2.65;;
71083;SDS011;58741;52.672;13.548;2023-05-07T02:26:00;3.72;;;2.03;;
71083;SDS011;58741;52.672;13.548;2023-05-07T02:28:32;3.30;;;2.70;;
71083;SDS011;58741;52.672;13.548;2023-05-07T02:31:02;4.78;;;2.45;;
71083;SDS011;58741;52.672;13.548;2023-05-07T02:33:31;3.83;;;2.65;;
71083;SDS011;58741;52.672;13.548;2023-05-07T02:36:04;2.55;;;1.77;;
71083;SDS011;58741;52.672;13.548;2023-05-07T02:38:32;3.97;;;2.40;;
71083;SDS011;58741;52.672;13.548;2023-05-07T02:40:58;2.65;;;2.17;;
71083;SDS011;58741;52.672;13.548;2023-05-07T02:43:24;2.60;;;2.40;;
71083;SDS011;58741;52.672;13.548;2023-05-07T02:45:59;2.70;;;1.95;;
71083;SDS011;58741;52.672;13.548;2023-05-07T02:48:37;3.05;;;2.20;;
71083;SDS011;58741;52.672;13.548;2023-05-07T02:51:03;3.75;;;2.03;;
71083;SDS011;58741;52.672;13.548;2023-05-07T02:53:31;4.05;;;2.20;;
71083;SDS011;58741;52.672;13.548;2023-05-07T02:55:57;2.45;;;1.75;;
71083;SDS011;58741;52.672;13.548;2023-05-07T02:58:24;1.85;;;1.67;;
71083;SDS011;58741;52.672;13.548;2023-05-07T03:00:50;3.05;;;1.83;;
71083;SDS011;58741;52.672;13.548;2023-05-07T03:03:33;3.13;;;2.05;;
71083;SDS011;58741;52.672;13.548;2023-05-07T03:05:59;2.72;;;2.00;;
71083;SDS011;58741;52.672;13.548;2023-05-07T03:08:25;2.08;;;1.63;;
71083;SDS011;58741;52.672;13.548;2023-05-07T03:10:51;2.63;;;2.22;;
71083;SDS011;58741;52.672;13.548;2023-05-07T03:13:17;5.10;;;2.28;;
71083;SDS011;58741;52.672;13.548;2023-05-07T03:15:43;2.78;;;1.73;;
71083;SDS011;58741;52.672;13.548;2023-05-07T03:18:09;4.20;;;2.50;;
71083;SDS011;58741;52.672;13.548;2023-05-07T03:20:35;2.75;;;1.70;;
71083;SDS011;58741;52.672;13.548;2023-05-07T03:23:02;4.97;;;2.30;;
71083;SDS011;58741;52.672;13.548;2023-05-07T03:25:27;2.45;;;1.73;;
71083;SDS011;58741;52.672;13.548;2023-05-07T03:27:55;3.70;;;2.35;;
71083;SDS011;58741;52.672;13.548;2023-05-07T03:30:24;7.18;;;2.03;;
71083;SDS011;58741;52.672;13.548;2023-05-07T03:32:50;2.30;;;1.83;;
71083;SDS011;58741;52.672;13.548;2023-05-07T03:35:15;3.35;;;2.35;;
71083;SDS011;58741;52.672;13.548;2023-05-07T03:37:41;3.25;;;2.58;;
71083;SDS011;58741;52.672;13.548;2023-05-07T03:40:09;2.30;;;1.80;;
71083;SDS011;58741;52.672;13.548;2023-05-07T03:42:42;4.28;;;2.33;;
71083;SDS011;58741;52.672;13.548;2023-05-07T03:45:10;3.33;;;2.28;;
71083;SDS011;58741;52.672;13.548;2023-05-07T03:47:38;2.65;;;1.50;;
71083;SDS011;58741;52.672;13.548;2023-05-07T03:50:06;3.92;;;2.05;;
71083;SDS011;58741;52.672;13.548;2023-05-07T03:52:32;4.78;;;2.00;;
71083;SDS011;58741;52.672;13.548;2023-05-07T03:55:00;2.13;;;1.60;;
71083;SDS011;58741;52.672;13.548;2023-05-07T03:57:26;3.10;;;1.85;;
71083;SDS011;58741;52.672;13.548;2023-05-07T03:59:52;3.47;;;1.73;;
71083;SDS011;58741;52.672;13.548;2023-05-07T04:02:18;2.15;;;1.95;;
71083;SDS011;58741;52.672;13.548;2023-05-07T04:04:43;5.10;;;2.25;;
71083;SDS011;58741;52.672;13.548;2023-05-07T04:07:09;6.55;;;2.08;;
71083;SDS011;58741;52.672;13.548;2023-05-07T04:09:39;3.83;;;2.20;;
71083;SDS011;58741;52.672;13.548;2023-05-07T04:12:05;2.13;;;1.92;;
71083;SDS011;58741;52.672;13.548;2023-05-07T04:14:31;3.78;;;2.42;;
71083;SDS011;58741;52.672;13.548;2023-05-07T04:16:58;5.70;;;2.50;;
71083;SDS011;58741;52.672;13.548;2023-05-07T04:19:24;3.65;;;2.20;;
71083;SDS011;58741;52.672;13.548;2023-05-07T04:21:52;4.57;;;1.98;;
71083;SDS011;58741;52.672;13.548;2023-05-07T04:24:17;4.22;;;2.70;;
71083;SDS011;58741;52.672;13.548;2023-05-07T04:26:44;4.07;;;1.88;;
71083;SDS011;58741;52.672;13.548;2023-05-07T04:29:10;2.80;;;1.83;;
71083;SDS011;58741;52.672;13.548;2023-05-07T04:31:36;3.25;;;2.33;;
71083;SDS011;58741;52.672;13.548;2023-05-07T04:34:02;4.60;;;2.67;;
71083;SDS011;58741;52.672;13.548;2023-05-07T04:36:27;3.78;;;2.40;;
71083;SDS011;58741;52.672;13.548;2023-05-07T04:38:59;6.03;;;2.60;;
71083;SDS011;58741;52.672;13.548;2023-05-07T04:41:25;2.30;;;2.10;;
71083;SDS011;58741;52.672;13.548;2023-05-07T04:43:51;3.38;;;2.33;;
71083;SDS011;58741;52.672;13.548;2023-05-07T04:46:20;3.85;;;2.50;;
71083;SDS011;58741;52.672;13.548;2023-05-07T04:48:47;3.88;;;2.38;;
71083;SDS011;58741;52.672;13.548;2023-05-07T04:51:13;2.92;;;2.00;;
71083;SDS011;58741;52.672;13.548;2023-05-07T04:53:39;3.80;;;2.30;;
71083;SDS011;58741;52.672;13.548;2023-05-07T04:56:04;3.50;;;2.38;;
71083;SDS011;58741;52.672;13.548;2023-05-07T04:58:37;3.90;;;2.20;;
71083;SDS011;58741;52.672;13.548;2023-05-07T05:01:03;3.45;;;1.92;;
71083;SDS011;58741;52.672;13.548;2023-05-07T05:03:29;3.10;;;2.33;;
71083;SDS011;58741;52.672;13.548;2023-05-07T05:05:56;4.05;;;2.35;;
71083;SDS011;58741;52.672;13.548;2023-05-07T05:08:25;5.93;;;3.05;;
71083;SDS011;58741;52.672;13.548;2023-05-07T05:10:50;2.83;;;2.03;;
71083;SDS011;58741;52.672;13.548;2023-05-07T05:13:16;3.90;;;2.28;;
71083;SDS011;58741;52.672;13.548;2023-05-07T05:15:42;5.57;;;1.98;;
71083;SDS011;58741;52.672;13.548;2023-05-07T05:18:08;1.95;;;1.73;;
71083;SDS011;58741;52.672;13.548;2023-05-07T05:20:34;3.33;;;1.55;;
71083;SDS011;58741;52.672;13.548;2023-05-07T05:23:00;3.00;;;2.58;;
71083;SDS011;58741;52.672;13.548;2023-05-07T05:25:25;2.58;;;1.88;;
71083;SDS011;58741;52.672;13.548;2023-05-07T05:27:51;2.05;;;1.60;;
71083;SDS011;58741;52.672;13.548;2023-05-07T05:30:17;2.42;;;1.80;;
71083;SDS011;58741;52.672;13.548;2023-05-07T05:32:45;2.40;;;1.90;;
71083;SDS011;58741;52.672;13.548;2023-05-07T05:35:10;3.35;;;2.22;;
71083;SDS011;58741;52.672;13.548;2023-05-07T05:37:37;2.40;;;1.90;;
71083;SDS011;58741;52.672;13.548;2023-05-07T05:40:05;2.95;;;2.25;;
71083;SDS011;58741;52.672;13.548;2023-05-07T05:42:31;2.65;;;2.03;;
71083;SDS011;58741;52.672;13.548;2023-05-07T05:44:57;2.63;;;1.67;;
71083;SDS011;58741;52.672;13.548;2023-05-07T05:47:23;3.40;;;1.98;;
71083;SDS011;58741;52.672;13.548;2023-05-07T05:49:50;3.47;;;1.77;;
71083;SDS011;58741;52.672;13.548;2023-05-07T05:52:16;3.25;;;2.17;;
71083;SDS011;58741;52.672;13.548;2023-05-07T05:54:42;2.13;;;1.65;;
71083;SDS011;58741;52.672;13.548;2023-05-07T05:57:07;2.83;;;1.90;;
71083;SDS011;58741;52.672;13.548;2023-05-07T05:59:33;3.00;;;1.80;;
71083;SDS011;58741;52.672;13.548;2023-05-07T06:01:59;1.88;;;1.65;;
71083;SDS011;58741;52.672;13.548;2023-05-07T06:04:25;2.42;;;1.85;;
71083;SDS011;58741;52.672;13.548;2023-05-07T06:06:50;3.28;;;2.45;;
71083;SDS011;58741;52.672;13.548;2023-05-07T06:09:16;2.97;;;1.80;;
71083;SDS011;58741;52.672;13.548;2023-05-07T06:11:43;2.97;;;2.05;;
71083;SDS011;58741;52.672;13.548;2023-05-07T06:14:10;1.60;;;1.50;;
71083;SDS011;58741;52.672;13.548;2023-05-07T06:16:36;2.83;;;1.70;;
71083;SDS011;58741;52.672;13.548;2023-05-07T06:19:04;3.28;;;1.98;;
71083;SDS011;58741;52.672;13.548;2023-05-07T06:21:30;2.55;;;1.63;;
71083;SDS011;58741;52.672;13.548;2023-05-07T06:23:56;4.35;;;1.58;;
71083;SDS011;58741;52.672;13.548;2023-05-07T06:26:22;1.92;;;1.73;;
71083;SDS011;58741;52.672;13.548;2023-05-07T06:28:47;2.35;;;1.75;;
71083;SDS011;58741;52.672;13.548;2023-05-07T06:31:15;3.40;;;1.70;;
71083;SDS011;58741;52.672;13.548;2023-05-07T06:33:45;2.13;;;1.50;;
71083;SDS011;58741;52.672;13.548;2023-05-07T06:36:12;3.92;;;2.08;;
71083;SDS011;58741;52.672;13.548;2023-05-07T06:38:38;4.03;;;1.90;;
71083;SDS011;58741;52.672;13.548;2023-05-07T06:41:05;2.75;;;1.83;;
71083;SDS011;58741;52.672;13.548;2023-05-07T06:43:31;2.58;;;1.63;;
71083;SDS011;58741;52.672;13.548;2023-05-07T06:46:25;4.55;;;1.98;;
71083;SDS011;58741;52.672;13.548;2023-05-07T06:48:50;4.00;;;2.00;;
71083;SDS011;58741;52.672;13.548;2023-05-07T06:51:17;1.70;;;1.27;;
71083;SDS011;58741;52.672;13.548;2023-05-07T06:53:43;2.25;;;1.98;;
71083;SDS011;58741;52.672;13.548;2023-05-07T06:56:10;1.95;;;1.70;;
71083;SDS011;58741;52.672;13.548;2023-05-07T06:58:37;2.25;;;1.50;;
71083;SDS011;58741;52.672;13.548;2023-05-07T07:01:03;4.03;;;2.03;;
71083;SDS011;58741;52.672;13.548;2023-05-07T07:03:29;2.17;;;1.42;;
71083;SDS011;58741;52.672;13.548;2023-05-07T07:05:55;2.22;;;1.63;;
71083;SDS011;58741;52.672;13.548;2023-05-07T07:08:21;3.17;;;1.35;;
71083;SDS011;58741;52.672;13.548;2023-05-07T07:10:47;3.08;;;1.90;;
71083;SDS011;58741;52.672;13.548;2023-05-07T07:13:13;1.60;;;1.50;;
71083;SDS011;58741;52.672;13.548;2023-05-07T07:15:39;2.55;;;1.58;;
71083;SDS011;58741;52.672;13.548;2023-05-07T07:18:05;2.80;;;1.40;;
71083;SDS011;58741;52.672;13.548;2023-05-07T07:20:31;1.35;;;1.25;;
71083;SDS011;58741;52.672;13.548;2023-05-07T07:22:57;4.00;;;1.85;;
71083;SDS011;58741;52.672;13.548;2023-05-07T07:25:23;5.82;;;1.70;;
71083;SDS011;58741;52.672;13.548;2023-05-07T07:27:49;4.28;;;1.27;;
71083;SDS011;58741;52.672;13.548;2023-05-07T07:30:15;3.15;;;1.27;;
71083;SDS011;58741;52.672;13.548;2023-05-07T07:32:44;1.90;;;1.15;;
71083;SDS011;58741;52.672;13.548;2023-05-07T07:35:10;1.10;;;1.02;;
71083;SDS011;58741;52.672;13.548;2023-05-07T07:37:37;1.80;;;1.40;;
71083;SDS011;58741;52.672;13.548;2023-05-07T07:40:03;1.15;;;1.00;;
71083;SDS011;58741;52.672;13.548;2023-05-07T07:42:29;1.15;;;0.95;;
71083;SDS011;58741;52.672;13.548;2023-05-07T07:44:55;1.90;;;1.00;;
71083;SDS011;58741;52.672;13.548;2023-05-07T07:47:23;1.50;;;1.00;;
71083;SDS011;58741;52.672;13.548;2023-05-07T07:49:51;3.17;;;0.90;;
71083;SDS011;58741;52.672;13.548;2023-05-07T07:52:21;1.17;;;0.85;;
71083;SDS011;58741;52.672;13.548;2023-05-07T07:54:48;1.90;;;0.90;;
71083;SDS011;58741;52.672;13.548;2023-05-07T07:57:16;2.25;;;1.02;;
71083;SDS011;58741;52.672;13.548;2023-05-07T07:59:42;2.60;;;0.82;;
71083;SDS011;58741;52.672;13.548;2023-05-07T08:02:10;1.30;;;1.08;;
71083;SDS011;58741;52.672;13.548;2023-05-07T08:04:38;1.42;;;1.20;;
71083;SDS011;58741;52.672;13.548;2023-05-07T08:07:17;1.70;;;0.98;;
71083;SDS011;58741;52.672;13.548;2023-05-07T08:09:47;1.27;;;0.60;;
71083;SDS011;58741;52.672;13.548;2023-05-07T08:12:14;1.73;;;0.93;;
71083;SDS011;58741;52.672;13.548;2023-05-07T08:14:43;1.65;;;1.08;;
71083;SDS011;58741;52.672;13.548;2023-05-07T08:17:16;1.08;;;0.95;;
71083;SDS011;58741;52.672;13.548;2023-05-07T08:52:27;1.15;;;0.98;;
71083;SDS011;58741;52.672;13.548;2023-05-07T10:36:44;0.68;;;0.52;;
71083;SDS011;58741;52.672;13.548;2023-05-07T10:39:11;0.77;;;0.77;;
71083;SDS011;58741;52.672;13.548;2023-05-07T12:03:31;1.85;;;0.65;;
71083;SDS011;58741;52.672;13.548;2023-05-07T12:05:57;1.75;;;0.63;;
71083;SDS011;58741;52.672;13.548;2023-05-07T12:08:26;0.85;;;0.70;;
71083;SDS011;58741;52.672;13.548;2023-05-07T12:10:54;0.40;;;0.40;;
71083;SDS011;58741;52.672;13.548;2023-05-07T12:13:22;0.70;;;0.70;;
71083;SDS011;58741;52.672;13.548;2023-05-07T12:15:53;1.00;;;0.60;;
71083;SDS011;58741;52.672;13.548;2023-05-07T12:18:20;0.80;;;0.70;;
71083;SDS011;58741;52.672;13.548;2023-05-07T12:20:47;0.57;;;0.55;;
71083;SDS011;58741;52.672;13.548;2023-05-07T12:23:13;2.40;;;0.50;;
71083;SDS011;58741;52.672;13.548;2023-05-07T12:25:40;2.85;;;0.70;;
71083;SDS011;58741;52.672;13.548;2023-05-07T12:28:18;0.68;;;0.68;;
71083;SDS011;58741;52.672;13.548;2023-05-07T12:30:44;0.68;;;0.68;;
71083;SDS011;58741;52.672;13.548;2023-05-07T12:33:17;0.50;;;0.50;;
71083;SDS011;58741;52.672;13.548;2023-05-07T12:35:44;0.85;;;0.57;;
71083;SDS011;58741;52.672;13.548;2023-05-07T12:38:10;0.73;;;0.57;;
71083;SDS011;58741;52.672;13.548;2023-05-07T12:40:38;1.15;;;0.77;;
71083;SDS011;58741;52.672;13.548;2023-05-07T12:43:06;0.55;;;0.55;;
71083;SDS011;58741;52.672;13.548;2023-05-07T12:45:36;0.50;;;0.50;;
71083;SDS011;58741;52.672;13.548;2023-05-07T12:48:03;1.77;;;0.65;;
71083;SDS011;58741;52.672;13.548;2023-05-07T12:50:33;1.40;;;0.50;;
71083;SDS011;58741;52.672;13.548;2023-05-07T12:52:59;0.85;;;0.70;;
71083;SDS011;58741;52.672;13.548;2023-05-07T12:55:25;0.85;;;0.50;;
71083;SDS011;58741;52.672;13.548;2023-05-07T12:57:51;0.68;;;0.45;;
71083;SDS011;58741;52.672;13.548;2023-05-07T13:00:31;0.40;;;0.40;;
71083;SDS011;58741;52.672;13.548;2023-05-07T13:03:01;0.60;;;0.60;;
71083;SDS011;58741;52.672;13.548;2023-05-07T13:05:26;1.60;;;0.80;;
71083;SDS011;58741;52.672;13.548;2023-05-07T13:07:53;0.50;;;0.50;;
71083;SDS011;58741;52.672;13.548;2023-05-07T13:10:19;0.60;;;0.60;;
71083;SDS011;58741;52.672;13.548;2023-05-07T13:12:45;1.13;;;0.85;;
71083;SDS011;58741;52.672;13.548;2023-05-07T13:15:10;0.52;;;0.52;;
71083;SDS011;58741;52.672;13.548;2023-05-07T13:17:36;0.65;;;0.50;;
71083;SDS011;58741;52.672;13.548;2023-05-07T13:20:02;2.35;;;0.55;;
71083;SDS011;58741;52.672;13.548;2023-05-07T13:22:28;0.90;;;0.63;;
71083;SDS011;58741;52.672;13.548;2023-05-07T13:24:54;0.70;;;0.63;;
71083;SDS011;58741;52.672;13.548;2023-05-07T13:27:19;0.47;;;0.47;;
71083;SDS011;58741;52.672;13.548;2023-05-07T13:29:45;0.82;;;0.40;;
71083;SDS011;58741;52.672;13.548;2023-05-07T13:32:11;0.50;;;0.40;;
71083;SDS011;58741;52.672;13.548;2023-05-07T13:34:36;0.55;;;0.52;;
71083;SDS011;58741;52.672;13.548;2023-05-07T13:37:02;0.50;;;0.50;;
71083;SDS011;58741;52.672;13.548;2023-05-07T13:41:25;0.77;;;0.55;;
71083;SDS011;58741;52.672;13.548;2023-05-07T13:43:50;1.73;;;0.60;;
71083;SDS011;58741;52.672;13.548;2023-05-07T13:46:16;0.57;;;0.57;;
71083;SDS011;58741;52.672;13.548;2023-05-07T13:48:42;0.60;;;0.55;;
71083;SDS011;58741;52.672;13.548;2023-05-07T13:51:07;1.77;;;0.80;;
71083;SDS011;58741;52.672;13.548;2023-05-07T13:53:33;0.95;;;0.70;;
71083;SDS011;58741;52.672;13.548;2023-05-07T13:55:59;0.57;;;0.50;;
71083;SDS011;58741;52.672;13.548;2023-05-07T13:58:24;0.50;;;0.50;;
71083;SDS011;58741;52.672;13.548;2023-05-07T14:00:50;1.35;;;0.63;;
71083;SDS011;58741;52.672;13.548;2023-05-07T14:03:16;1.42;;;0.85;;
71083;SDS011;58741;52.672;13.548;2023-05-07T14:05:42;1.05;;;0.80;;
71083;SDS011;58741;52.672;13.548;2023-05-07T14:08:08;0.60;;;0.60;;
71083;SDS011;58741;52.672;13.548;2023-05-07T14:10:33;1.55;;;0.68;;
71083;SDS011;58741;52.672;13.548;2023-05-07T14:13:28;1.05;;;0.85;;
71083;SDS011;58741;52.672;13.548;2023-05-07T14:15:55;0.80;;;0.80;;
71083;SDS011;58741;52.672;13.548;2023-05-07T14:18:22;0.52;;;0.52;;
71083;SDS011;58741;52.672;13.548;2023-05-07T14:20:48;0.82;;;0.50;;
71083;SDS011;58741;52.672;13.548;2023-05-07T14:23:14;1.05;;;0.55;;
71083;SDS011;58741;52.672;13.548;2023-05-07T14:25:40;0.60;;;0.57;;
71083;SDS011;58741;52.672;13.548;2023-05-07T14:28:08;0.50;;;0.50;;
71083;SDS011;58741;52.672;13.548;2023-05-07T14:30:34;0.80;;;0.70;;
71083;SDS011;58741;52.672;13.548;2023-05-07T14:33:00;0.57;;;0.50;;
71083;SDS011;58741;52.672;13.548;2023-05-07T14:35:25;0.63;;;0.55;;
71083;SDS011;58741;52.672;13.548;2023-05-07T14:37:51;0.40;;;0.40;;
71083;SDS011;58741;52.672;13.548;2023-05-07T14:40:16;0.50;;;0.50;;
71083;SDS011;58741;52.672;13.548;2023-05-07T14:42:42;1.50;;;0.98;;
71083;SDS011;58741;52.672;13.548;2023-05-07T14:45:08;0.30;;;0.30;;
71083;SDS011;58741;52.672;13.548;2023-05-07T14:47:34;0.77;;;0.40;;
71083;SDS011;58741;52.672;13.548;2023-05-07T14:50:00;0.30;;;0.30;;
71083;SDS011;58741;52.672;13.548;2023-05-07T14:52:26;4.57;;;0.50;;
71083;SDS011;58741;52.672;13.548;2023-05-07T14:54:52;0.50;;;0.50;;
71083;SDS011;58741;52.672;13.548;2023-05-07T14:57:18;0.35;;;0.35;;
71083;SDS011;58741;52.672;13.548;2023-05-07T14:59:44;1.08;;;0.40;;
71083;SDS011;58741;52.672;13.548;2023-05-07T15:02:11;1.42;;;0.60;;
71083;SDS011;58741;52.672;13.548;2023-05-07T15:04:37;0.40;;;0.40;;
71083;SDS011;58741;52.672;13.548;2023-05-07T15:07:13;1.25;;;0.50;;
71083;SDS011;58741;52.672;13.548;2023-05-07T15:09:40;0.30;;;0.30;;
71083;SDS011;58741;52.672;13.548;2023-05-07T15:12:07;1.27;;;0.60;;
71083;SDS011;58741;52.672;13.548;2023-05-07T15:14:32;0.50;;;0.50;;
71083;SDS011;58741;52.672;13.548;2023-05-07T15:16:58;0.57;;;0.47;;
71083;SDS011;58741;52.672;13.548;2023-05-07T15:19:24;0.30;;;0.30;;
71083;SDS011;58741;52.672;13.548;2023-05-07T15:21:54;1.58;;;0.63;;
71083;SDS011;58741;52.672;13.548;2023-05-07T15:24:21;0.93;;;0.50;;
71083;SDS011;58741;52.672;13.548;2023-05-07T15:26:47;1.35;;;0.50;;
71083;SDS011;58741;52.672;13.548;2023-05-07T15:29:13;1.17;;;0.50;;
71083;SDS011;58741;52.672;13.548;2023-05-07T15:31:38;0.57;;;0.57;;
71083;SDS011;58741;52.672;13.548;2023-05-07T15:34:04;0.52;;;0.52;;
71083;SDS011;58741;52.672;13.548;2023-05-07T15:36:30;0.47;;;0.43;;
71083;SDS011;58741;52.672;13.548;2023-05-07T15:38:56;0.40;;;0.40;;
71083;SDS011;58741;52.672;13.548;2023-05-07T15:41:22;0.30;;;0.30;;
71083;SDS011;58741;52.672;13.548;2023-05-07T15:43:48;0.40;;;0.40;;
71083;SDS011;58741;52.672;13.548;2023-05-07T15:46:19;0.40;;;0.40;;
71083;SDS011;58741;52.672;13.548;2023-05-07T15:48:48;0.30;;;0.30;;
71083;SDS011;58741;52.672;13.548;2023-05-07T15:51:14;0.73;;;0.50;;
71083;SDS011;58741;52.672;13.548;2023-05-07T15:53:40;0.70;;;0.45;;
71083;SDS011;58741;52.672;13.548;2023-05-07T15:56:06;0.30;;;0.30;;
71083;SDS011;58741;52.672;13.548;2023-05-07T15:58:31;0.55;;;0.40;;
71083;SDS011;58741;52.672;13.548;2023-05-07T16:00:57;0.30;;;0.30;;
71083;SDS011;58741;52.672;13.548;2023-05-07T16:03:25;0.30;;;0.30;;
71083;SDS011;58741;52.672;13.548;2023-05-07T16:05:52;0.65;;;0.55;;
71083;SDS011;58741;52.672;13.548;2023-05-07T16:08:21;0.40;;;0.40;;
71083;SDS011;58741;52.672;13.548;2023-05-07T16:10:47;0.40;;;0.40;;
71083;SDS011;58741;52.672;13.548;2023-05-07T16:13:13;0.55;;;0.50;;
71083;SDS011;58741;52.672;13.548;2023-05-07T16:15:38;0.45;;;0.40;;
71083;SDS011;58741;52.672;13.548;2023-05-07T16:18:04;0.52;;;0.40;;
71083;SDS011;58741;52.672;13.548;2023-05-07T16:20:29;4.03;;;1.80;;
71083;SDS011;58741;52.672;13.548;2023-05-07T16:22:55;2.05;;;1.33;;
71083;SDS011;58741;52.672;13.548;2023-05-07T16:25:22;2.30;;;1.02;;
71083;SDS011;58741;52.672;13.548;2023-05-07T16:27:47;4.55;;;1.35;;
71083;SDS011;58741;52.672;13.548;2023-05-07T16:30:13;1.35;;;0.75;;
71083;SDS011;58741;52.672;13.548;2023-05-07T16:32:39;1.48;;;0.98;;
71083;SDS011;58741;52.672;13.548;2023-05-07T16:35:04;0.80;;;0.65;;
71083;SDS011;58741;52.672;13.548;2023-05-07T16:37:31;0.43;;;0.43;;
71083;SDS011;58741;52.672;13.548;2023-05-07T16:39:59;1.08;;;0.82;;
71083;SDS011;58741;52.672;13.548;2023-05-07T16:42:26;0.57;;;0.57;;
71083;SDS011;58741;52.672;13.548;2023-05-07T16:44:52;1.08;;;0.85;;
71083;SDS011;58741;52.672;13.548;2023-05-07T16:47:19;0.90;;;0.63;;
71083;SDS011;58741;52.672;13.548;2023-05-07T16:49:45;0.68;;;0.68;;
71083;SDS011;58741;52.672;13.548;2023-05-07T16:52:10;0.60;;;0.60;;
71083;SDS011;58741;52.672;13.548;2023-05-07T16:54:36;0.50;;;0.50;;
71083;SDS011;58741;52.672;13.548;2023-05-07T16:57:02;0.50;;;0.50;;
71083;SDS011;58741;52.672;13.548;2023-05-07T16:59:28;0.73;;;0.68;;
71083;SDS011;58741;52.672;13.548;2023-05-07T17:01:56;0.55;;;0.47;;
71083;SDS011;58741;52.672;13.548;2023-05-07T17:04:27;0.80;;;0.70;;
71083;SDS011;58741;52.672;13.548;2023-05-07T17:06:57;0.73;;;0.40;;
71083;SDS011;58741;52.672;13.548;2023-05-07T17:09:26;1.15;;;0.60;;
71083;SDS011;58741;52.672;13.548;2023-05-07T17:11:51;0.50;;;0.50;;
71083;SDS011;58741;52.672;13.548;2023-05-07T17:14:17;0.77;;;0.50;;
71083;SDS011;58741;52.672;13.548;2023-05-07T17:16:43;0.40;;;0.40;;
71083;SDS011;58741;52.672;13.548;2023-05-07T17:19:08;0.35;;;0.35;;
71083;SDS011;58741;52.672;13.548;2023-05-07T17:21:34;0.30;;;0.30;;
71083;SDS011;58741;52.672;13.548;2023-05-07T17:24:00;0.55;;;0.50;;
71083;SDS011;58741;52.672;13.548;2023-05-07T17:26:25;0.40;;;0.40;;
71083;SDS011;58741;52.672;13.548;2023-05-07T17:28:51;1.00;;;0.40;;
71083;SDS011;58741;52.672;13.548;2023-05-07T17:31:18;0.55;;;0.55;;
71083;SDS011;58741;52.672;13.548;2023-05-07T17:33:43;0.30;;;0.30;;
71083;SDS011;58741;52.672;13.548;2023-05-07T17:36:10;0.30;;;0.30;;
71083;SDS011;58741;52.672;13.548;2023-05-07T17:38:35;0.40;;;0.40;;
71083;SDS011;58741;52.672;13.548;2023-05-07T17:41:01;0.63;;;0.47;;
71083;SDS011;58741;52.672;13.548;2023-05-07T17:43:32;0.43;;;0.43;;
71083;SDS011;58741;52.672;13.548;2023-05-07T17:45:59;0.30;;;0.30;;
71083;SDS011;58741;52.672;13.548;2023-05-07T17:48:24;0.70;;;0.50;;
71083;SDS011;58741;52.672;13.548;2023-05-07T17:50:50;0.40;;;0.40;;
71083;SDS011;58741;52.672;13.548;2023-05-07T17:53:16;0.60;;;0.43;;
71083;SDS011;58741;52.672;13.548;2023-05-07T17:55:42;0.40;;;0.40;;
71083;SDS011;58741;52.672;13.548;2023-05-07T17:58:09;0.40;;;0.40;;
71083;SDS011;58741;52.672;13.548;2023-05-07T18:00:38;0.40;;;0.40;;
71083;SDS011;58741;52.672;13.548;2023-05-07T18:03:04;0.47;;;0.38;;
71083;SDS011;58741;52.672;13.548;2023-05-07T18:05:29;0.47;;;0.47;;
71083;SDS011;58741;52.672;13.548;2023-05-07T18:07:55;0.30;;;0.30;;
71083;SDS011;58741;52.672;13.548;2023-05-07T18:10:21;0.40;;;0.40;;
71083;SDS011;58741;52.672;13.548;2023-05-07T18:12:47;2.22;;;0.68;;
71083;SDS011;58741;52.672;13.548;2023-05-07T18:15:13;1.20;;;0.40;;